Time;durP1;ratioP1;P1;durP2;ratioP2;P2;SDS_P1;SDS_P2;PMS_P1;PMS_P2;Temp;Humidity;BMP_temperature;BMP_pressure;BME280_temperature;BME280_humidity;BME280_pressure;Samples;Min_cycle;Max_cycle;Signal;HPM_P1;HPM_P2
2023/07/22 00:01:08;;;;;;;7.38;5.05;;;16.00;1.00;;;;;;6248290;23;20536;-93
2023/07/22 00:03:35;;;;;;;11.40;5.35;;;15.90;33.10;;;;;;6247924;23;20195;-95
2023/07/22 00:06:06;;;;;;;8.90;5.00;;;15.90;99.90;;;;;;6247850;23;20245;-94
2023/07/22 00:08:33;;;;;;;9.18;5.38;;;15.90;99.90;;;;;;6247902;23;20244;-93
2023/07/22 00:11:02;;;;;;;11.85;5.40;;;15.80;99.90;;;;;;6247535;23;20492;-95
2023/07/22 00:13:29;;;;;;;6.45;5.05;;;15.80;99.90;;;;;;6247511;23;20239;-93
2023/07/22 00:15:58;;;;;;;8.23;5.40;;;15.60;99.90;;;;;;6247798;23;20202;-93
2023/07/22 00:18:27;;;;;;;10.90;5.20;;;15.60;99.90;;;;;;6247902;23;20160;-94
2023/07/22 00:20:54;;;;;;;10.20;5.60;;;15.50;99.90;;;;;;6247952;23;20176;-94
2023/07/22 00:23:21;;;;;;;9.93;6.05;;;15.40;99.90;;;;;;6248033;23;20175;-96
2023/07/22 00:25:48;;;;;;;9.52;6.03;;;15.30;1.00;;;;;;6247076;22;20256;-94
2023/07/22 00:28:18;;;;;;;8.00;5.85;;;;;;;;;;6246911;23;20173;-94
2023/07/22 00:30:45;;;;;;;10.73;5.93;;;15.20;1.00;;;;;;6247629;23;20171;-94
2023/07/22 00:33:12;;;;;;;10.85;6.20;;;15.10;1.00;;;;;;6247768;23;20255;-94
2023/07/22 00:35:39;;;;;;;9.77;5.78;;;15.10;1.00;;;;;;6247720;23;20201;-92
2023/07/22 00:38:06;;;;;;;9.98;6.25;;;15.00;1.00;;;;;;6247631;23;20198;-93
2023/07/22 00:40:32;;;;;;;15.53;6.10;;;14.90;1.00;;;;;;6246861;23;20166;-94
2023/07/22 00:43:00;;;;;;;13.27;6.30;;;14.90;1.00;;;;;;6247608;23;20173;-95
2023/07/22 00:45:28;;;;;;;8.33;6.10;;;14.80;1.00;;;;;;6247438;23;20168;-94
2023/07/22 00:47:55;;;;;;;10.53;6.10;;;14.80;1.00;;;;;;6247596;23;20253;-94
2023/07/22 00:50:24;;;;;;;8.70;6.07;;;14.80;1.00;;;;;;6247762;23;20230;-94
2023/07/22 00:52:51;;;;;;;12.20;6.37;;;14.70;7.50;;;;;;6247535;23;20224;-92
2023/07/22 00:55:18;;;;;;;7.90;6.37;;;14.60;1.00;;;;;;6247538;23;20254;-95
2023/07/22 00:57:45;;;;;;;11.10;6.60;;;14.60;17.90;;;;;;6248507;23;20216;-95
2023/07/22 01:00:15;;;;;;;10.07;5.97;;;14.50;52.10;;;;;;6247668;23;20209;-95
2023/07/22 01:02:44;;;;;;;11.03;6.80;;;14.40;99.90;;;;;;6247875;23;20178;-95
2023/07/22 01:05:13;;;;;;;11.70;6.53;;;14.40;99.90;;;;;;6246968;23;20164;-93
2023/07/22 01:07:39;;;;;;;9.47;6.63;;;14.40;99.90;;;;;;6247455;23;20183;-93
2023/07/22 01:10:08;;;;;;;9.47;6.57;;;14.30;99.90;;;;;;6247480;23;20215;-93
2023/07/22 01:12:35;;;;;;;12.83;6.60;;;14.30;99.90;;;;;;6247924;23;20174;-94
2023/07/22 01:15:03;;;;;;;11.57;6.70;;;14.20;1.00;;;;;;6247726;23;20205;-95
2023/07/22 01:17:30;;;;;;;11.30;7.30;;;14.20;1.00;;;;;;6247611;23;20175;-95
2023/07/22 01:19:59;;;;;;;9.47;6.60;;;14.10;1.00;;;;;;6247226;23;20168;-95
2023/07/22 01:22:26;;;;;;;10.27;6.97;;;14.10;1.00;;;;;;6247408;23;20232;-95
2023/07/22 01:24:55;;;;;;;11.83;7.13;;;14.10;1.00;;;;;;6247436;22;20173;-93
2023/07/22 01:27:22;;;;;;;11.53;7.13;;;14.00;1.00;;;;;;6247068;23;20152;-94
2023/07/22 01:29:52;;;;;;;10.13;7.10;;;13.90;1.00;;;;;;6247279;23;20288;-94
2023/07/22 01:32:19;;;;;;;11.47;7.00;;;13.90;1.00;;;;;;6247826;23;20174;-94
2023/07/22 01:34:47;;;;;;;12.07;6.90;;;13.90;1.00;;;;;;6234953;23;20175;-93
2023/07/22 01:37:14;;;;;;;12.87;6.70;;;13.90;1.00;;;;;;6247103;23;20512;-93
2023/07/22 01:39:41;;;;;;;11.40;6.87;;;13.90;1.00;;;;;;6247400;23;20208;-94
2023/07/22 01:42:09;;;;;;;9.93;6.83;;;13.80;1.00;;;;;;6248834;23;20172;-94
2023/07/22 01:44:36;;;;;;;12.30;6.90;;;13.80;1.00;;;;;;6248796;23;20247;-95
2023/07/22 01:47:03;;;;;;;12.83;6.67;;;13.80;1.00;;;;;;6249701;23;20195;-95
2023/07/22 01:49:30;;;;;;;11.53;6.90;;;13.80;1.00;;;;;;6248961;23;20274;-93
2023/07/22 01:51:57;;;;;;;9.50;7.10;;;13.80;17.80;;;;;;6248964;23;20171;-93
2023/07/22 01:54:24;;;;;;;11.40;7.30;;;13.80;17.10;;;;;;6248995;23;20416;-94
2023/07/22 01:56:51;;;;;;;9.37;7.10;;;13.70;70.00;;;;;;6248735;23;20255;-94
2023/07/22 01:59:19;;;;;;;13.00;7.67;;;13.70;99.90;;;;;;6249029;23;20634;-94
2023/07/22 02:01:47;;;;;;;9.33;7.33;;;13.80;99.90;;;;;;6249227;23;20172;-94
2023/07/22 02:04:14;;;;;;;15.60;7.57;;;13.70;99.90;;;;;;6249843;23;20171;-95
2023/07/22 02:06:41;;;;;;;9.07;7.83;;;13.80;99.90;;;;;;6249863;23;20256;-94
2023/07/22 02:09:08;;;;;;;11.30;7.20;;;13.80;99.90;;;;;;6249584;23;20218;-94
2023/07/22 02:11:36;;;;;;;13.53;7.60;;;13.80;99.90;;;;;;6250473;23;20172;-94
2023/07/22 02:14:06;;;;;;;13.33;8.00;;;13.80;99.90;;;;;;6250213;23;20163;-94
2023/07/22 02:16:34;;;;;;;15.27;7.83;;;13.80;99.90;;;;;;6250580;23;20162;-94
2023/07/22 02:19:02;;;;;;;14.70;8.00;;;13.80;99.90;;;;;;6250779;23;20190;-95
2023/07/22 02:21:29;;;;;;;14.07;8.53;;;13.90;99.90;;;;;;6248606;23;20170;-93
2023/07/22 02:23:56;;;;;;;10.73;8.40;;;13.90;99.90;;;;;;6249632;23;20173;-93
2023/07/22 02:26:23;;;;;;;18.80;8.10;;;13.80;99.90;;;;;;6249286;22;20238;-94
2023/07/22 02:28:50;;;;;;;14.73;8.37;;;13.80;99.90;;;;;;6248942;23;20175;-94
2023/07/22 02:31:17;;;;;;;13.17;8.17;;;13.70;99.90;;;;;;6249824;23;20199;-95
2023/07/22 02:33:46;;;;;;;11.87;8.53;;;13.70;99.90;;;;;;6249402;23;20178;-95
2023/07/22 02:36:13;;;;;;;11.97;8.40;;;13.60;99.90;;;;;;6249466;23;20177;-94
2023/07/22 02:38:40;;;;;;;17.10;9.87;;;13.60;99.90;;;;;;6249297;23;20207;-94
2023/07/22 02:41:08;;;;;;;19.93;9.53;;;13.60;99.90;;;;;;6249477;23;20206;-94
2023/07/22 02:43:35;;;;;;;13.27;8.80;;;13.60;99.90;;;;;;6249367;23;20250;-94
2023/07/22 02:46:03;;;;;;;15.57;9.43;;;13.50;1.00;;;;;;6250726;23;20175;-94
2023/07/22 02:48:31;;;;;;;11.77;9.60;;;13.50;1.00;;;;;;6252975;23;20179;-94
2023/07/22 02:51:05;;;;;;;18.50;9.53;;;13.50;1.00;;;;;;6252535;23;20203;-95
2023/07/22 02:53:32;;;;;;;13.13;8.70;;;13.40;1.00;;;;;;6251658;23;20166;-95
2023/07/22 02:56:00;;;;;;;15.43;9.40;;;13.50;1.00;;;;;;6250878;23;20201;-95
2023/07/22 02:58:27;;;;;;;16.87;8.80;;;13.40;1.00;;;;;;6249800;23;20708;-95
2023/07/22 03:00:53;;;;;;;12.27;9.17;;;13.40;1.00;;;;;;6251387;23;20239;-95
2023/07/22 03:03:21;;;;;;;12.93;9.33;;;13.40;1.00;;;;;;6250677;23;20224;-95
2023/07/22 03:05:48;;;;;;;17.37;9.57;;;13.40;1.00;;;;;;6251056;23;20170;-95
2023/07/22 03:08:17;;;;;;;18.13;9.40;;;13.40;1.00;;;;;;6249468;23;20172;-94
2023/07/22 03:10:48;;;;;;;11.27;8.87;;;13.40;1.00;;;;;;6248580;23;20226;-93
2023/07/22 03:13:15;;;;;;;13.53;9.17;;;13.40;1.00;;;;;;6249243;23;20185;-94
2023/07/22 03:15:42;;;;;;;15.13;9.20;;;13.40;1.00;;;;;;6248844;23;20173;-94
2023/07/22 03:18:09;;;;;;;17.33;9.73;;;13.40;1.00;;;;;;6249705;23;20563;-94
2023/07/22 03:20:36;;;;;;;13.27;9.77;;;13.40;1.00;;;;;;6248565;23;20253;-94
2023/07/22 03:23:03;;;;;;;14.00;9.40;;;13.50;1.00;;;;;;6248469;23;20172;-96
2023/07/22 03:25:33;;;;;;;16.93;9.70;;;13.50;1.00;;;;;;6247909;23;20233;-94
2023/07/22 03:28:03;;;;;;;13.17;9.33;;;13.70;1.00;;;;;;6247955;23;20175;-94
2023/07/22 03:30:30;;;;;;;13.10;9.30;;;13.80;1.00;;;;;;6247687;23;20423;-95
2023/07/22 03:32:57;;;;;;;11.73;9.17;;;13.90;1.00;;;;;;6248686;23;20167;-95
2023/07/22 03:35:24;;;;;;;10.90;8.57;;;14.00;1.00;;;;;;6249014;23;20176;-94
2023/07/22 03:37:51;;;;;;;12.40;8.50;;;14.10;1.00;;;;;;6248543;23;20175;-95
2023/07/22 03:40:19;;;;;;;15.70;8.37;;;14.20;1.00;;;;;;6248751;23;20177;-95
2023/07/22 03:42:48;;;;;;;10.97;8.10;;;14.30;1.00;;;;;;6248759;23;20176;-93
2023/07/22 03:45:15;;;;;;;11.53;7.60;;;14.30;99.90;;;;;;6248192;23;20182;-94
2023/07/22 03:47:42;;;;;;;12.37;8.20;;;14.40;99.90;;;;;;6248510;23;20179;-95
2023/07/22 03:50:10;;;;;;;12.57;8.30;;;14.40;99.90;;;;;;6249252;23;20279;-93
2023/07/22 03:52:37;;;;;;;9.47;8.47;;;14.50;99.90;;;;;;6251185;23;20169;-94
2023/07/22 03:55:05;;;;;;;10.60;8.30;;;14.70;99.90;;;;;;6251065;23;20230;-95
2023/07/22 03:57:32;;;;;;;11.07;8.20;;;14.70;99.90;;;;;;6251436;23;20211;-95
2023/07/22 04:00:00;;;;;;;16.90;7.77;;;14.80;99.90;;;;;;6253175;23;20184;-95
2023/07/22 04:02:27;;;;;;;12.27;7.90;;;14.80;99.90;;;;;;6252372;23;20173;-95
2023/07/22 04:04:55;;;;;;;14.80;8.23;;;14.90;99.90;;;;;;6255522;23;20195;-95
2023/07/22 04:07:23;;;;;;;9.13;7.97;;;15.00;99.90;;;;;;6255642;23;20222;-96
2023/07/22 04:09:50;;;;;;;14.90;8.00;;;15.00;1.00;;;;;;6259300;23;20185;-95
2023/07/22 04:12:17;;;;;;;10.83;7.80;;;15.10;1.00;;;;;;6252816;23;20469;-95
2023/07/22 04:14:44;;;;;;;14.95;8.05;;;15.20;1.00;;;;;;6253464;23;20170;-95
2023/07/22 04:17:15;;;;;;;11.23;6.73;;;15.10;1.00;;;;;;6249583;23;20210;-95
2023/07/22 04:19:42;;;;;;;11.77;6.83;;;15.10;1.00;;;;;;6250300;23;20155;-96
2023/07/22 04:22:10;;;;;;;9.10;7.23;;;15.10;1.00;;;;;;6252311;23;20167;-95
2023/07/22 04:24:37;;;;;;;9.27;6.82;;;15.20;1.00;;;;;;6250004;22;20260;-90
2023/07/22 04:27:04;;;;;;;19.25;7.40;;;15.30;1.00;;;;;;6248804;23;20181;-94
2023/07/22 04:29:31;;;;;;;15.57;7.88;;;15.40;1.00;;;;;;6249802;23;20185;-95
2023/07/22 04:31:59;;;;;;;11.20;7.50;;;15.50;2.10;;;;;;6249636;23;20174;-95
2023/07/22 04:34:30;;;;;;;12.82;6.82;;;15.50;1.00;;;;;;6250560;23;20613;-95
2023/07/22 04:36:57;;;;;;;10.30;6.88;;;15.60;99.90;;;;;;6249796;23;20165;-95
2023/07/22 04:39:24;;;;;;;10.90;6.85;;;15.70;1.00;;;;;;6250577;23;20554;-95
2023/07/22 04:41:51;;;;;;;7.38;6.68;;;15.70;30.90;;;;;;6251251;23;20240;-96
2023/07/22 04:44:19;;;;;;;7.10;6.40;;;15.70;99.90;;;;;;6252073;23;20181;-95
2023/07/22 04:46:46;;;;;;;7.70;6.80;;;15.80;1.00;;;;;;6251926;23;20180;-97
2023/07/22 04:49:17;;;;;;;9.40;7.15;;;15.80;1.00;;;;;;6250592;23;20170;-95
2023/07/22 04:51:45;;;;;;;9.73;7.30;;;15.80;99.90;;;;;;6250536;23;20210;-96
2023/07/22 04:54:12;;;;;;;8.65;6.88;;;15.80;99.90;;;;;;6254918;23;20208;-95
2023/07/22 04:56:39;;;;;;;8.45;6.85;;;15.80;99.90;;;;;;6259639;23;20573;-96
2023/07/22 04:59:06;;;;;;;9.73;7.32;;;15.90;1.00;;;;;;6256964;23;20175;-94
2023/07/22 05:01:33;;;;;;;8.27;7.38;;;16.00;1.00;;;;;;6258333;23;20202;-96
2023/07/22 05:04:01;;;;;;;8.38;7.57;;;16.00;1.00;;;;;;6259521;23;20175;-96
2023/07/22 05:06:29;;;;;;;12.23;9.00;;;16.10;1.00;;;;;;6256915;23;20171;-96
2023/07/22 05:08:58;;;;;;;10.50;7.70;;;16.10;1.00;;;;;;6256689;23;20190;-94
2023/07/22 05:11:25;;;;;;;11.25;8.20;;;16.10;1.00;;;;;;6257126;23;20243;-96
2023/07/22 05:13:52;;;;;;;8.60;7.75;;;16.10;1.00;;;;;;6258525;23;20176;-95
2023/07/22 05:16:21;;;;;;;10.10;8.73;;;16.10;1.00;;;;;;6263294;23;20175;-96
2023/07/22 05:18:48;;;;;;;11.50;9.32;;;16.20;1.00;;;;;;6263081;23;20509;-95
2023/07/22 05:21:17;;;;;;;9.93;8.98;;;16.20;1.00;;;;;;6265144;23;20170;-95
2023/07/22 05:23:44;;;;;;;11.68;9.63;;;16.20;99.90;;;;;;6265395;23;20203;-94
2023/07/22 05:26:12;;;;;;;11.57;10.38;;;16.30;99.90;;;;;;6265308;23;20234;-95
2023/07/22 05:28:39;;;;;;;11.82;9.65;;;16.30;99.90;;;;;;6265676;23;20175;-96
2023/07/22 05:31:06;;;;;;;11.85;9.80;;;16.40;99.90;;;;;;6266756;23;20172;-96
2023/07/22 05:33:33;;;;;;;12.93;9.82;;;16.50;99.90;;;;;;6262421;23;20198;-95
2023/07/22 05:36:01;;;;;;;14.15;12.25;;;16.50;99.90;;;;;;6258884;23;20206;-95
2023/07/22 05:38:28;;;;;;;19.23;15.20;;;16.50;99.90;;;;;;6264944;23;20203;-96
2023/07/22 05:40:55;;;;;;;75.65;32.83;;;16.50;99.90;;;;;;6257563;23;20206;-94
2023/07/22 05:43:23;;;;;;;33.53;20.58;;;16.50;99.90;;;;;;6259161;23;20196;-95
2023/07/22 05:45:50;;;;;;;83.55;36.40;;;16.50;99.90;;;;;;6258437;23;20233;-95
2023/07/22 05:48:17;;;;;;;34.67;19.35;;;16.50;99.90;;;;;;6253387;23;20222;-95
2023/07/22 05:50:44;;;;;;;181.25;66.05;;;16.60;99.90;;;;;;6254959;23;20180;-95
2023/07/22 05:53:13;;;;;;;64.00;30.15;;;16.70;99.90;;;;;;6256151;23;20200;-94
2023/07/22 05:55:40;;;;;;;42.47;22.45;;;16.70;99.90;;;;;;6257116;23;20172;-95
2023/07/22 05:58:08;;;;;;;151.60;57.55;;;16.80;89.30;;;;;;6259403;23;20627;-94
2023/07/22 06:00:36;;;;;;;153.85;60.72;;;16.90;41.50;;;;;;6259267;23;20479;-95
2023/07/22 06:03:04;;;;;;;225.05;92.65;;;17.00;1.00;;;;;;6239027;22;20201;-96
2023/07/22 06:05:31;;;;;;;207.52;90.97;;;17.00;1.00;;;;;;6236578;22;20200;-95
2023/07/22 06:08:00;;;;;;;133.57;61.90;;;17.00;1.00;;;;;;6239104;23;20153;-95
2023/07/22 06:10:27;;;;;;;80.30;42.47;;;16.90;1.00;;;;;;6214258;22;20204;-95
2023/07/22 06:12:54;;;;;;;160.60;84.63;;;16.90;17.10;;;;;;6231148;22;20531;-96
2023/07/22 06:15:21;;;;;;;56.80;33.75;;;17.20;1.00;;;;;;6269551;22;20187;-95
2023/07/22 06:17:50;;;;;;;79.75;46.33;;;17.40;1.00;;;;;;6266277;23;20157;-96
2023/07/22 06:20:16;;;;;;;65.18;39.90;;;17.50;1.00;;;;;;6259270;23;20615;-96
2023/07/22 06:22:47;;;;;;;36.97;24.65;;;17.60;1.00;;;;;;6261983;23;20247;-96
2023/07/22 06:25:14;;;;;;;39.35;28.00;;;17.60;1.00;;;;;;6268230;22;20164;-96
2023/07/22 06:27:41;;;;;;;38.58;27.33;;;17.70;1.00;;;;;;6265690;23;20173;-95
2023/07/22 06:30:09;;;;;;;23.98;16.75;;;17.80;99.90;;;;;;6260583;23;20172;-96
2023/07/22 06:32:37;;;;;;;26.77;17.90;;;17.90;99.90;;;;;;6256773;23;20192;-94
2023/07/22 06:35:09;;;;;;;48.97;31.50;;;17.90;99.90;;;;;;6261568;23;20171;-95
2023/07/22 06:37:36;;;;;;;22.10;15.32;;;17.80;99.90;;;;;;6252587;22;20185;-95
2023/07/22 06:40:04;;;;;;;20.23;14.65;;;18.00;59.30;;;;;;6230251;22;20212;-96
2023/07/22 06:42:30;;;;;;;26.05;16.52;;;18.10;4.50;;;;;;6230480;23;20354;-94
2023/07/22 06:44:57;;;;;;;27.25;21.75;;;18.20;1.00;;;;;;6232144;23;20158;-95
2023/07/22 06:49:59;;;;;;;13.27;9.80;;;18.50;1.00;;;;;;6229981;22;20204;-95
2023/07/22 06:52:27;;;;;;;13.60;9.85;;;18.80;1.00;;;;;;6221955;23;20554;-96
2023/07/22 06:54:54;;;;;;;7.47;6.78;;;19.00;99.90;;;;;;6255378;23;20168;-95
2023/07/22 06:57:21;;;;;;;7.60;6.82;;;18.90;99.90;;;;;;6252450;23;20164;-95
2023/07/22 06:59:50;;;;;;;8.90;7.97;;;18.90;99.90;;;;;;6250753;23;20504;-95
2023/07/22 07:02:17;;;;;;;9.30;7.22;;;19.00;1.00;;;;;;6249886;23;20479;-96
2023/07/22 07:04:45;;;;;;;9.57;7.40;;;19.00;1.00;;;;;;6249522;23;20168;-94
2023/07/22 07:07:12;;;;;;;9.20;7.53;;;19.00;1.00;;;;;;6248576;23;20168;-95
2023/07/22 07:09:40;;;;;;;14.25;10.00;;;19.10;1.00;;;;;;6249704;23;20176;-96
2023/07/22 07:12:08;;;;;;;12.10;7.93;;;19.30;99.90;;;;;;6249700;23;20204;-94
2023/07/22 07:14:35;;;;;;;12.40;7.90;;;19.30;1.00;;;;;;6250316;23;20203;-95
2023/07/22 07:17:03;;;;;;;9.27;6.78;;;19.40;99.90;;;;;;6248970;23;20207;-95
2023/07/22 07:19:30;;;;;;;12.07;7.55;;;19.60;99.90;;;;;;6249814;23;20191;-95
2023/07/22 07:21:56;;;;;;;18.33;9.57;;;19.70;1.00;;;;;;6249037;23;20644;-92
2023/07/22 07:24:23;;;;;;;27.48;13.70;;;19.70;1.00;;;;;;6248015;23;20250;-91
2023/07/22 07:26:51;;;;;;;47.42;20.10;;;19.70;1.00;;;;;;6247080;23;20560;-92
2023/07/22 07:29:18;;;;;;;13.82;9.38;;;19.90;1.00;;;;;;6247557;23;20194;-93
2023/07/22 07:31:45;;;;;;;5.75;3.95;;;20.10;1.00;;;;;;6234604;23;20267;-91
2023/07/22 07:34:12;;;;;;;22.00;15.80;;;20.30;1.00;;;;;;6247556;23;20220;-90
2023/07/22 07:36:39;;;;;;;6.53;4.75;;;20.50;1.00;;;;;;6247280;23;20251;-92
2023/07/22 07:39:05;;;;;;;13.25;8.65;;;20.60;99.90;;;;;;6247366;23;20258;-92
2023/07/22 07:41:32;;;;;;;24.33;13.23;;;20.60;99.90;;;;;;6246872;23;20692;-91
2023/07/22 07:44:00;;;;;;;17.05;9.82;;;20.60;99.90;;;;;;6247492;23;20218;-92
2023/07/22 07:46:29;;;;;;;19.08;10.90;;;20.30;99.90;;;;;;6247391;23;20247;-91
2023/07/22 07:48:57;;;;;;;25.10;11.70;;;20.20;99.90;;;;;;6247058;22;20188;-92
2023/07/22 07:51:26;;;;;;;24.05;11.73;;;20.30;99.90;;;;;;6247338;23;20257;-91
2023/07/22 07:53:54;;;;;;;27.95;11.75;;;20.30;1.00;;;;;;6247141;23;20230;-91
2023/07/22 07:56:21;;;;;;;5.38;4.15;;;20.20;1.00;;;;;;6246978;23;20167;-92
2023/07/22 07:58:50;;;;;;;32.85;14.00;;;20.00;1.00;;;;;;6247262;23;20220;-90
2023/07/22 08:01:18;;;;;;;25.80;12.80;;;19.80;1.00;;;;;;6247249;23;20218;-91
2023/07/22 08:03:46;;;;;;;6.70;3.88;;;19.60;1.00;;;;;;6246102;23;20565;-91
2023/07/22 08:06:14;;;;;;;39.80;17.30;;;19.50;99.90;;;;;;6246293;23;20226;-91
2023/07/22 08:08:41;;;;;;;15.70;7.70;;;19.70;99.90;;;;;;6247241;23;20172;-90
2023/07/22 08:11:09;;;;;;;4.65;3.72;;;19.80;99.90;;;;;;6246618;23;20184;-91
2023/07/22 08:13:36;;;;;;;14.98;7.97;;;20.20;1.00;;;;;;6246758;23;20247;-91
2023/07/22 08:16:04;;;;;;;13.35;9.32;;;20.50;99.90;;;;;;6247221;23;20251;-91
2023/07/22 08:18:32;;;;;;;11.95;7.75;;;20.60;1.00;;;;;;6247140;23;20172;-92
2023/07/22 08:21:00;;;;;;;5.38;3.50;;;20.80;99.90;;;;;;6246940;23;20164;-90
2023/07/22 08:23:26;;;;;;;6.30;3.60;;;20.90;1.00;;;;;;6246221;23;20168;-91
2023/07/22 08:25:53;;;;;;;19.65;10.93;;;21.00;1.00;;;;;;6245890;23;20669;-91
2023/07/22 08:28:20;;;;;;;12.93;6.38;;;20.90;1.00;;;;;;6247075;23;20246;-91
2023/07/22 08:30:49;;;;;;;11.30;5.20;;;20.90;1.00;;;;;;6246918;23;20239;-91
2023/07/22 08:33:17;;;;;;;18.50;8.80;;;21.00;1.00;;;;;;6246748;23;20626;-91
2023/07/22 08:35:47;;;;;;;24.45;11.75;;;21.30;99.90;;;;;;6246639;23;20167;-91
2023/07/22 08:38:14;;;;;;;6.85;4.13;;;21.60;1.00;;;;;;6246292;23;20157;-90
2023/07/22 08:40:42;;;;;;;6.43;3.50;;;21.90;1.00;;;;;;6246616;23;20557;-92
2023/07/22 08:43:11;;;;;;;4.05;3.13;;;22.20;1.00;;;;;;6246234;23;20775;-90
2023/07/22 08:45:40;;;;;;;12.07;8.25;;;22.40;1.00;;;;;;6246561;23;20255;-91
2023/07/22 08:48:09;;;;;;;4.40;3.53;;;22.50;1.00;;;;;;6245673;23;20728;-92
2023/07/22 08:50:41;;;;;;;8.38;6.40;;;22.80;99.90;;;;;;6248246;22;20192;-92
2023/07/22 08:53:09;;;;;;;16.33;11.90;;;22.70;99.90;;;;;;6248341;23;20159;-91
2023/07/22 08:55:36;;;;;;;6.57;3.63;;;22.40;1.00;;;;;;6248815;23;20243;-92
2023/07/22 08:58:04;;;;;;;4.45;2.95;;;22.10;99.90;;;;;;6249163;23;20195;-92
2023/07/22 09:00:32;;;;;;;9.60;6.90;;;22.20;99.90;;;;;;6248246;23;20239;-92
2023/07/22 09:03:00;;;;;;;6.20;4.88;;;22.40;99.90;;;;;;6247668;23;20176;-91
2023/07/22 09:05:27;;;;;;;4.80;3.55;;;22.40;99.90;;;;;;6248573;23;20275;-92
2023/07/22 09:07:54;;;;;;;10.10;5.93;;;22.40;52.50;;;;;;6248344;23;20169;-93
2023/07/22 09:10:23;;;;;;;5.43;4.70;;;22.30;1.00;;;;;;6248284;23;20696;-92
2023/07/22 09:12:51;;;;;;;4.00;3.55;;;22.30;1.00;;;;;;6248771;23;20188;-92
2023/07/22 09:15:18;;;;;;;8.13;5.13;;;22.50;27.80;;;;;;6248766;23;20552;-94
2023/07/22 09:17:45;;;;;;;9.02;5.53;;;22.80;1.00;;;;;;6235692;23;20183;-93
2023/07/22 09:20:14;;;;;;;3.70;3.25;;;22.90;1.00;;;;;;6248847;23;20168;-93
2023/07/22 09:22:44;;;;;;;4.18;3.17;;;23.00;1.00;;;;;;6248088;23;20204;-94
2023/07/22 09:25:15;;;;;;;4.18;2.85;;;23.30;1.00;;;;;;6248181;23;20232;-92
2023/07/22 09:27:44;;;;;;;4.43;3.67;;;23.30;1.00;;;;;;6249234;23;20172;-96
2023/07/22 09:30:25;;;;;;;6.85;3.67;;;23.20;1.00;;;;;;6249089;23;20251;-96
2023/07/22 09:32:53;;;;;;;4.22;3.55;;;22.90;1.00;;;;;;6249267;23;20188;-95
2023/07/22 09:35:20;;;;;;;3.92;3.40;;;22.70;1.00;;;;;;6249007;23;20167;-96
2023/07/22 09:37:47;;;;;;;3.78;3.33;;;22.50;1.00;;;;;;6249401;23;20172;-96
2023/07/22 09:40:18;;;;;;;22.08;12.20;;;22.60;1.00;;;;;;6249415;23;20188;-94
2023/07/22 09:42:51;;;;;;;5.00;3.17;;;22.80;1.00;;;;;;6236340;23;20176;-95
2023/07/22 09:45:19;;;;;;;8.73;4.72;;;23.10;1.00;;;;;;6248866;23;20235;-95
2023/07/22 09:47:49;;;;;;;4.93;3.22;;;23.20;1.00;;;;;;6248651;23;20172;-96
2023/07/22 09:50:17;;;;;;;5.05;3.28;;;23.20;1.00;;;;;;6248854;22;20232;-94
2023/07/22 09:52:47;;;;;;;3.78;3.10;;;23.20;1.00;;;;;;6248743;23;20664;-95
2023/07/22 09:55:17;;;;;;;3.60;2.97;;;23.10;1.00;;;;;;6248663;23;20164;-96
2023/07/22 09:57:46;;;;;;;3.10;2.80;;;22.80;1.00;;;;;;6249343;23;20167;-96
2023/07/22 10:00:16;;;;;;;5.45;3.30;;;22.60;1.00;;;;;;6248353;23;20558;-95
2023/07/22 10:02:44;;;;;;;3.65;2.90;;;22.50;1.00;;;;;;6249004;23;20263;-94
2023/07/22 10:05:15;;;;;;;14.73;9.90;;;22.60;1.00;;;;;;6248939;23;20174;-96
2023/07/22 10:07:47;;;;;;;3.53;3.13;;;22.70;1.00;;;;;;6248955;23;20240;-95
2023/07/22 10:10:16;;;;;;;14.80;9.32;;;22.70;1.00;;;;;;6247819;23;20188;-96
2023/07/22 10:12:43;;;;;;;13.63;9.55;;;22.80;1.00;;;;;;6247972;23;20236;-95
2023/07/22 10:15:12;;;;;;;5.93;3.33;;;22.80;1.00;;;;;;6248528;23;20196;-96
2023/07/22 10:17:41;;;;;;;9.35;6.25;;;23.10;1.00;;;;;;6248487;23;20175;-95
2023/07/22 10:20:10;;;;;;;9.63;6.93;;;23.30;1.00;;;;;;6247749;23;20173;-95
2023/07/22 10:22:38;;;;;;;17.08;11.07;;;23.70;1.00;;;;;;6247620;23;20183;-95
2023/07/22 10:25:06;;;;;;;25.15;16.15;;;24.10;1.00;;;;;;6248139;23;20570;-94
2023/07/22 10:27:34;;;;;;;15.02;9.73;;;24.20;1.00;;;;;;6248502;23;20483;-94
2023/07/22 10:30:02;;;;;;;9.80;6.05;;;24.00;1.00;;;;;;6247906;23;20244;-94
2023/07/22 10:32:33;;;;;;;6.03;3.45;;;23.80;1.00;;;;;;6248270;23;20212;-94
2023/07/22 10:35:02;;;;;;;12.82;4.15;;;23.70;1.00;;;;;;6247986;23;20282;-95
2023/07/22 10:37:33;;;;;;;4.22;3.30;;;23.60;1.00;;;;;;6247998;23;20168;-93
2023/07/22 10:40:01;;;;;;;4.53;2.95;;;23.30;1.00;;;;;;6247937;23;20627;-96
2023/07/22 10:42:28;;;;;;;5.60;2.85;;;23.00;1.00;;;;;;6247794;23;20726;-94
2023/07/22 10:44:55;;;;;;;3.15;2.53;;;22.70;1.00;;;;;;6247705;23;20251;-94
2023/07/22 10:47:34;;;;;;;4.90;3.50;;;22.50;1.00;;;;;;6247972;23;20678;-95
2023/07/22 10:50:09;;;;;;;4.43;3.08;;;22.40;1.00;;;;;;6247617;22;20536;-94
2023/07/22 10:52:43;;;;;;;4.63;2.75;;;22.60;1.00;;;;;;6248011;23;20176;-95
2023/07/22 10:55:19;;;;;;;5.40;3.70;;;22.90;1.00;;;;;;6247512;23;20164;-94
2023/07/22 10:57:51;;;;;;;5.32;3.47;;;23.20;1.00;;;;;;6235912;23;20526;-95
2023/07/22 11:00:21;;;;;;;4.10;2.28;;;23.40;1.00;;;;;;6248716;23;20181;-94
2023/07/22 11:03:08;;;;;;;3.15;2.22;;;23.70;1.00;;;;;;6248345;23;20172;-94
2023/07/22 11:05:50;;;;;;;4.22;2.20;;;24.10;1.00;;;;;;6248136;23;20235;-95
2023/07/22 11:08:17;;;;;;;3.40;2.50;;;24.50;1.00;;;;;;6248022;23;20160;-95
2023/07/22 11:10:54;;;;;;;4.10;2.50;;;24.60;1.00;;;;;;6248057;23;20168;-94
2023/07/22 11:13:28;;;;;;;3.92;2.58;;;24.60;1.00;;;;;;6247535;23;20513;-95
2023/07/22 11:15:59;;;;;;;3.47;2.88;;;24.50;1.00;;;;;;6248508;23;20153;-94
2023/07/22 11:18:37;;;;;;;5.38;2.85;;;24.40;1.00;;;;;;6247667;23;20207;-95
2023/07/22 11:21:08;;;;;;;6.85;3.20;;;24.60;1.00;;;;;;6248577;23;20184;-94
2023/07/22 11:23:35;;;;;;;5.45;2.75;;;24.80;1.00;;;;;;6248527;23;20177;-94
2023/07/22 11:26:03;;;;;;;6.10;2.75;;;24.80;1.00;;;;;;6248124;23;20172;-94
2023/07/22 11:28:30;;;;;;;5.03;2.63;;;24.80;1.00;;;;;;6247857;23;20212;-95
2023/07/22 11:30:58;;;;;;;3.13;2.22;;;24.70;1.00;;;;;;6247683;23;20228;-92
2023/07/22 11:33:25;;;;;;;3.95;2.58;;;24.70;1.00;;;;;;6247488;23;20191;-94
2023/07/22 11:35:52;;;;;;;4.00;2.35;;;25.00;1.00;;;;;;6247673;23;20210;-93
2023/07/22 11:38:20;;;;;;;4.00;2.20;;;25.30;1.00;;;;;;6247742;23;20214;-95
2023/07/22 11:40:48;;;;;;;2.92;1.92;;;25.60;1.00;;;;;;6235981;23;20176;-91
2023/07/22 11:43:15;;;;;;;3.88;2.22;;;25.80;1.00;;;;;;6247442;23;20160;-91
2023/07/22 11:45:42;;;;;;;6.90;2.38;;;25.70;1.00;;;;;;6247228;23;20251;-93
2023/07/22 11:48:13;;;;;;;5.88;2.70;;;25.50;1.00;;;;;;6247508;23;20200;-92
2023/07/22 11:50:40;;;;;;;7.38;2.95;;;25.30;1.00;;;;;;6247292;22;20535;-92
2023/07/22 11:53:09;;;;;;;3.55;2.38;;;25.20;1.00;;;;;;6248041;23;20227;-91
2023/07/22 11:55:39;;;;;;;2.50;2.13;;;25.10;1.00;;;;;;6248120;23;20172;-93
2023/07/22 11:58:06;;;;;;;5.97;2.20;;;25.10;1.00;;;;;;6251173;23;20164;-96
2023/07/22 12:00:34;;;;;;;4.13;1.88;;;25.00;99.90;;;;;;6250256;23;20195;-93
2023/07/22 12:03:06;;;;;;;4.88;2.05;;;25.10;1.00;;;;;;6248552;23;20214;-94
2023/07/22 12:05:36;;;;;;;8.82;2.40;;;25.30;1.00;;;;;;6249158;23;20173;-93
2023/07/22 12:08:06;;;;;;;5.78;2.83;;;25.60;1.00;;;;;;6248403;23;20490;-95
2023/07/22 12:10:34;;;;;;;5.43;2.53;;;25.90;1.00;;;;;;6258310;23;20198;-93
2023/07/22 12:13:04;;;;;;;5.43;2.83;;;26.10;1.00;;;;;;6248699;23;20518;-94
2023/07/22 12:15:31;;;;;;;3.40;2.40;;;26.20;99.90;;;;;;6248211;23;20231;-94
2023/07/22 12:17:59;;;;;;;4.10;2.65;;;26.40;1.00;;;;;;6247723;23;20240;-94
2023/07/22 12:20:27;;;;;;;8.07;2.80;;;26.40;99.90;;;;;;6247406;23;20173;-95
2023/07/22 12:22:54;;;;;;;5.05;2.40;;;26.60;99.90;;;;;;6247600;23;20251;-94
2023/07/22 12:25:23;;;;;;;2.75;2.20;;;26.60;99.90;;;;;;6247890;23;20172;-94
2023/07/22 12:27:50;;;;;;;2.95;2.10;;;26.60;99.90;;;;;;6250876;23;20164;-96
2023/07/22 12:30:19;;;;;;;3.97;2.10;;;26.60;99.90;;;;;;6252246;23;20251;-96
2023/07/22 12:32:46;;;;;;;7.97;2.20;;;26.80;99.90;;;;;;6254798;23;20184;-96
2023/07/22 12:35:14;;;;;;;8.18;3.33;;;27.00;99.90;;;;;;6251233;23;20248;-96
2023/07/22 12:37:41;;;;;;;3.30;2.10;;;27.10;99.90;;;;;;6249431;23;20517;-96
2023/07/22 12:40:12;;;;;;;8.05;2.70;;;27.00;99.90;;;;;;6253576;23;20326;-96
2023/07/22 12:42:38;;;;;;;11.35;2.38;;;26.90;99.90;;;;;;6261919;23;20171;-96
2023/07/22 12:45:07;;;;;;;6.15;2.25;;;26.50;99.90;;;;;;6255129;23;20259;-96
2023/07/22 12:47:36;;;;;;;4.25;2.30;;;26.40;99.90;;;;;;6257410;23;20187;-96
2023/07/22 12:50:04;;;;;;;3.80;2.20;;;26.30;99.90;;;;;;6253205;22;20215;-96
2023/07/22 12:52:30;;;;;;;5.93;2.10;;;26.10;99.90;;;;;;6250179;23;20184;-95